Aviation Digital Data Service (ADDS)

Output produced by METARs form (1751 UTC 01 April 2015)
found at http://aviationweather.gov/adds/metars/
 
KAEX 011720Z 0118/0218 18010G18KT P6SM SCT035 
     FM020000 17008KT P6SM SCT025 
     FM020600 16005KT P6SM SCT015 
     TEMPO 0211/0215 BKN008 OVC015 
     FM021500 18014G22KT P6SM VCSH BKN015